sensor_id;sensor_type;location;lat;lon;timestamp;P1;durP1;ratioP1;P2;durP2;ratioP2
23561;SDS011;11959;49.418;8.728;2023-02-01T00:01:37;6.88;;;3.92;;
23561;SDS011;11959;49.418;8.728;2023-02-01T00:04:03;7.00;;;4.43;;
23561;SDS011;11959;49.418;8.728;2023-02-01T00:06:28;7.05;;;4.25;;
23561;SDS011;11959;49.418;8.728;2023-02-01T00:08:54;6.30;;;4.30;;
23561;SDS011;11959;49.418;8.728;2023-02-01T00:11:21;7.43;;;4.22;;
23561;SDS011;11959;49.418;8.728;2023-02-01T00:13:48;5.60;;;4.28;;
23561;SDS011;11959;49.418;8.728;2023-02-01T00:16:24;8.00;;;4.07;;
23561;SDS011;11959;49.418;8.728;2023-02-01T00:18:52;8.40;;;4.55;;
23561;SDS011;11959;49.418;8.728;2023-02-01T00:21:25;5.88;;;4.55;;
23561;SDS011;11959;49.418;8.728;2023-02-01T00:23:51;6.43;;;4.25;;
23561;SDS011;11959;49.418;8.728;2023-02-01T00:26:17;6.28;;;4.70;;
23561;SDS011;11959;49.418;8.728;2023-02-01T00:28:55;7.13;;;4.53;;
23561;SDS011;11959;49.418;8.728;2023-02-01T00:31:21;7.57;;;4.28;;
23561;SDS011;11959;49.418;8.728;2023-02-01T00:33:47;8.27;;;4.93;;
23561;SDS011;11959;49.418;8.728;2023-02-01T00:36:13;6.40;;;4.25;;
23561;SDS011;11959;49.418;8.728;2023-02-01T00:38:39;6.20;;;3.90;;
23561;SDS011;11959;49.418;8.728;2023-02-01T00:41:06;6.75;;;4.72;;
23561;SDS011;11959;49.418;8.728;2023-02-01T00:43:34;7.47;;;4.40;;
23561;SDS011;11959;49.418;8.728;2023-02-01T00:46:00;6.13;;;4.63;;
23561;SDS011;11959;49.418;8.728;2023-02-01T00:48:26;6.47;;;4.50;;
23561;SDS011;11959;49.418;8.728;2023-02-01T00:50:51;6.10;;;4.10;;
23561;SDS011;11959;49.418;8.728;2023-02-01T00:53:18;7.30;;;4.45;;
23561;SDS011;11959;49.418;8.728;2023-02-01T00:55:47;5.43;;;4.13;;
23561;SDS011;11959;49.418;8.728;2023-02-01T00:58:13;8.07;;;4.38;;
23561;SDS011;11959;49.418;8.728;2023-02-01T01:00:39;7.40;;;4.43;;
23561;SDS011;11959;49.418;8.728;2023-02-01T01:03:05;8.10;;;4.80;;
23561;SDS011;11959;49.418;8.728;2023-02-01T01:05:51;6.40;;;4.20;;
23561;SDS011;11959;49.418;8.728;2023-02-01T01:08:22;6.93;;;4.18;;
23561;SDS011;11959;49.418;8.728;2023-02-01T01:10:48;6.65;;;5.05;;
23561;SDS011;11959;49.418;8.728;2023-02-01T01:13:14;6.45;;;4.72;;
23561;SDS011;11959;49.418;8.728;2023-02-01T01:15:40;7.05;;;4.25;;
23561;SDS011;11959;49.418;8.728;2023-02-01T01:18:06;7.82;;;4.22;;
23561;SDS011;11959;49.418;8.728;2023-02-01T01:20:34;6.13;;;4.22;;
23561;SDS011;11959;49.418;8.728;2023-02-01T01:23:01;6.65;;;4.45;;
23561;SDS011;11959;49.418;8.728;2023-02-01T01:25:26;6.93;;;4.47;;
23561;SDS011;11959;49.418;8.728;2023-02-01T01:27:52;6.82;;;3.95;;
23561;SDS011;11959;49.418;8.728;2023-02-01T01:30:17;9.40;;;4.90;;
23561;SDS011;11959;49.418;8.728;2023-02-01T01:32:43;6.03;;;4.45;;
23561;SDS011;11959;49.418;8.728;2023-02-01T01:35:09;7.40;;;4.60;;
23561;SDS011;11959;49.418;8.728;2023-02-01T01:37:35;6.85;;;4.47;;
23561;SDS011;11959;49.418;8.728;2023-02-01T01:40:02;6.93;;;4.28;;
23561;SDS011;11959;49.418;8.728;2023-02-01T01:42:28;5.25;;;4.07;;
23561;SDS011;11959;49.418;8.728;2023-02-01T01:45:04;6.68;;;4.40;;
23561;SDS011;11959;49.418;8.728;2023-02-01T01:47:34;7.88;;;4.40;;
23561;SDS011;11959;49.418;8.728;2023-02-01T01:50:06;8.85;;;4.65;;
23561;SDS011;11959;49.418;8.728;2023-02-01T01:52:34;6.45;;;4.75;;
23561;SDS011;11959;49.418;8.728;2023-02-01T01:55:03;5.28;;;3.88;;
23561;SDS011;11959;49.418;8.728;2023-02-01T01:57:32;5.82;;;3.92;;
23561;SDS011;11959;49.418;8.728;2023-02-01T02:00:07;6.75;;;4.43;;
23561;SDS011;11959;49.418;8.728;2023-02-01T02:02:37;6.82;;;4.53;;
23561;SDS011;11959;49.418;8.728;2023-02-01T02:05:05;6.70;;;4.25;;
23561;SDS011;11959;49.418;8.728;2023-02-01T02:07:32;8.20;;;4.68;;
23561;SDS011;11959;49.418;8.728;2023-02-01T02:10:03;7.90;;;4.45;;
23561;SDS011;11959;49.418;8.728;2023-02-01T02:12:31;6.05;;;4.22;;
23561;SDS011;11959;49.418;8.728;2023-02-01T02:14:57;7.05;;;4.30;;
23561;SDS011;11959;49.418;8.728;2023-02-01T02:30:46;7.22;;;4.65;;
23561;SDS011;11959;49.418;8.728;2023-02-01T02:44:30;8.38;;;4.95;;
23561;SDS011;11959;49.418;8.728;2023-02-01T02:53:12;9.32;;;5.28;;
23561;SDS011;11959;49.418;8.728;2023-02-01T02:55:59;10.18;;;5.40;;
23561;SDS011;11959;49.418;8.728;2023-02-01T02:58:46;7.65;;;5.07;;
23561;SDS011;11959;49.418;8.728;2023-02-01T03:01:31;8.23;;;5.68;;
23561;SDS011;11959;49.418;8.728;2023-02-01T03:04:16;7.78;;;5.20;;
23561;SDS011;11959;49.418;8.728;2023-02-01T03:06:45;7.18;;;4.68;;
23561;SDS011;11959;49.418;8.728;2023-02-01T03:09:30;8.30;;;5.40;;
23561;SDS011;11959;49.418;8.728;2023-02-01T03:12:00;7.15;;;5.05;;
23561;SDS011;11959;49.418;8.728;2023-02-01T03:14:50;7.90;;;4.95;;
23561;SDS011;11959;49.418;8.728;2023-02-01T03:17:25;8.85;;;5.15;;
23561;SDS011;11959;49.418;8.728;2023-02-01T03:19:55;9.38;;;5.10;;
23561;SDS011;11959;49.418;8.728;2023-02-01T03:22:27;8.10;;;5.30;;
23561;SDS011;11959;49.418;8.728;2023-02-01T03:24:59;6.78;;;4.82;;
23561;SDS011;11959;49.418;8.728;2023-02-01T03:27:41;7.57;;;5.40;;
23561;SDS011;11959;49.418;8.728;2023-02-01T03:30:16;6.95;;;4.90;;
23561;SDS011;11959;49.418;8.728;2023-02-01T03:32:48;10.27;;;5.05;;
23561;SDS011;11959;49.418;8.728;2023-02-01T03:36:09;8.45;;;5.00;;
23561;SDS011;11959;49.418;8.728;2023-02-01T03:38:31;7.68;;;5.10;;
23561;SDS011;11959;49.418;8.728;2023-02-01T03:46:20;9.05;;;5.03;;
23561;SDS011;11959;49.418;8.728;2023-02-01T03:48:52;9.82;;;5.47;;
23561;SDS011;11959;49.418;8.728;2023-02-01T03:51:20;9.35;;;5.30;;
23561;SDS011;11959;49.418;8.728;2023-02-01T03:53:48;9.40;;;5.25;;
23561;SDS011;11959;49.418;8.728;2023-02-01T03:56:15;9.48;;;5.55;;
23561;SDS011;11959;49.418;8.728;2023-02-01T03:58:42;9.05;;;5.30;;
23561;SDS011;11959;49.418;8.728;2023-02-01T04:01:22;9.85;;;5.65;;
23561;SDS011;11959;49.418;8.728;2023-02-01T04:03:48;9.43;;;5.30;;
23561;SDS011;11959;49.418;8.728;2023-02-01T04:06:16;9.20;;;6.03;;
23561;SDS011;11959;49.418;8.728;2023-02-01T04:08:42;9.68;;;5.82;;
23561;SDS011;11959;49.418;8.728;2023-02-01T04:11:07;8.48;;;5.90;;
23561;SDS011;11959;49.418;8.728;2023-02-01T04:13:33;9.75;;;5.40;;
23561;SDS011;11959;49.418;8.728;2023-02-01T04:15:58;8.70;;;5.57;;
23561;SDS011;11959;49.418;8.728;2023-02-01T04:18:24;10.15;;;5.40;;
23561;SDS011;11959;49.418;8.728;2023-02-01T04:20:50;8.73;;;5.30;;
23561;SDS011;11959;49.418;8.728;2023-02-01T04:23:15;9.25;;;5.45;;
23561;SDS011;11959;49.418;8.728;2023-02-01T04:25:41;10.57;;;5.50;;
23561;SDS011;11959;49.418;8.728;2023-02-01T04:28:07;8.88;;;5.30;;
23561;SDS011;11959;49.418;8.728;2023-02-01T04:30:33;11.52;;;5.90;;
23561;SDS011;11959;49.418;8.728;2023-02-01T04:32:58;9.00;;;5.20;;
23561;SDS011;11959;49.418;8.728;2023-02-01T04:35:24;11.10;;;5.50;;
23561;SDS011;11959;49.418;8.728;2023-02-01T04:37:50;9.52;;;5.45;;
23561;SDS011;11959;49.418;8.728;2023-02-01T04:40:15;10.00;;;5.65;;
23561;SDS011;11959;49.418;8.728;2023-02-01T04:42:41;9.07;;;5.38;;
23561;SDS011;11959;49.418;8.728;2023-02-01T04:45:07;10.43;;;5.30;;
23561;SDS011;11959;49.418;8.728;2023-02-01T04:47:34;8.35;;;6.00;;
23561;SDS011;11959;49.418;8.728;2023-02-01T04:49:59;6.90;;;5.38;;
23561;SDS011;11959;49.418;8.728;2023-02-01T04:52:25;11.15;;;6.03;;
23561;SDS011;11959;49.418;8.728;2023-02-01T04:54:52;9.65;;;5.60;;
23561;SDS011;11959;49.418;8.728;2023-02-01T04:57:19;10.60;;;5.30;;
23561;SDS011;11959;49.418;8.728;2023-02-01T04:59:45;9.82;;;5.50;;
23561;SDS011;11959;49.418;8.728;2023-02-01T05:02:10;10.52;;;5.20;;
23561;SDS011;11959;49.418;8.728;2023-02-01T05:04:36;12.15;;;5.25;;
23561;SDS011;11959;49.418;8.728;2023-02-01T05:07:01;8.50;;;5.95;;
23561;SDS011;11959;49.418;8.728;2023-02-01T05:09:27;10.40;;;5.10;;
23561;SDS011;11959;49.418;8.728;2023-02-01T05:11:53;9.25;;;6.10;;
23561;SDS011;11959;49.418;8.728;2023-02-01T05:14:37;7.95;;;5.05;;
23561;SDS011;11959;49.418;8.728;2023-02-01T05:17:02;8.60;;;5.45;;
23561;SDS011;11959;49.418;8.728;2023-02-01T05:19:28;8.23;;;5.47;;
23561;SDS011;11959;49.418;8.728;2023-02-01T05:21:54;11.23;;;5.55;;
23561;SDS011;11959;49.418;8.728;2023-02-01T05:24:19;9.00;;;6.13;;
23561;SDS011;11959;49.418;8.728;2023-02-01T05:26:46;11.13;;;5.95;;
23561;SDS011;11959;49.418;8.728;2023-02-01T05:29:12;9.65;;;5.70;;
23561;SDS011;11959;49.418;8.728;2023-02-01T05:31:39;11.07;;;5.43;;
23561;SDS011;11959;49.418;8.728;2023-02-01T05:34:05;9.07;;;4.95;;
23561;SDS011;11959;49.418;8.728;2023-02-01T05:36:31;9.15;;;5.80;;
23561;SDS011;11959;49.418;8.728;2023-02-01T05:38:57;7.40;;;4.72;;
23561;SDS011;11959;49.418;8.728;2023-02-01T05:41:23;11.15;;;5.50;;
23561;SDS011;11959;49.418;8.728;2023-02-01T05:43:49;6.45;;;4.10;;
23561;SDS011;11959;49.418;8.728;2023-02-01T05:46:15;7.90;;;4.75;;
23561;SDS011;11959;49.418;8.728;2023-02-01T05:48:41;10.65;;;5.05;;
23561;SDS011;11959;49.418;8.728;2023-02-01T05:51:07;6.38;;;4.97;;
23561;SDS011;11959;49.418;8.728;2023-02-01T05:53:33;10.10;;;5.00;;
23561;SDS011;11959;49.418;8.728;2023-02-01T05:55:59;8.60;;;5.30;;
23561;SDS011;11959;49.418;8.728;2023-02-01T05:58:24;10.55;;;5.57;;
23561;SDS011;11959;49.418;8.728;2023-02-01T06:00:50;9.27;;;5.20;;
23561;SDS011;11959;49.418;8.728;2023-02-01T06:03:16;8.52;;;5.22;;
23561;SDS011;11959;49.418;8.728;2023-02-01T06:05:43;9.63;;;5.85;;
23561;SDS011;11959;49.418;8.728;2023-02-01T06:08:09;9.70;;;5.47;;
23561;SDS011;11959;49.418;8.728;2023-02-01T06:10:35;9.43;;;5.75;;
23561;SDS011;11959;49.418;8.728;2023-02-01T06:13:01;9.65;;;5.57;;
23561;SDS011;11959;49.418;8.728;2023-02-01T06:15:28;10.07;;;5.53;;
23561;SDS011;11959;49.418;8.728;2023-02-01T06:17:54;11.50;;;6.05;;
23561;SDS011;11959;49.418;8.728;2023-02-01T06:20:20;11.55;;;5.78;;
23561;SDS011;11959;49.418;8.728;2023-02-01T06:22:46;10.93;;;6.35;;
23561;SDS011;11959;49.418;8.728;2023-02-01T06:25:12;8.93;;;5.35;;
23561;SDS011;11959;49.418;8.728;2023-02-01T06:27:37;9.75;;;6.03;;
23561;SDS011;11959;49.418;8.728;2023-02-01T06:30:03;9.15;;;5.45;;
23561;SDS011;11959;49.418;8.728;2023-02-01T06:32:30;12.18;;;5.63;;
23561;SDS011;11959;49.418;8.728;2023-02-01T06:34:56;9.80;;;6.32;;
23561;SDS011;11959;49.418;8.728;2023-02-01T06:37:23;8.38;;;5.88;;
23561;SDS011;11959;49.418;8.728;2023-02-01T06:39:50;9.90;;;6.60;;
23561;SDS011;11959;49.418;8.728;2023-02-01T06:42:16;10.70;;;5.93;;
23561;SDS011;11959;49.418;8.728;2023-02-01T06:44:41;11.27;;;6.47;;
23561;SDS011;11959;49.418;8.728;2023-02-01T06:47:07;11.18;;;6.38;;
23561;SDS011;11959;49.418;8.728;2023-02-01T06:49:33;12.82;;;6.63;;
23561;SDS011;11959;49.418;8.728;2023-02-01T06:51:58;10.85;;;6.40;;
23561;SDS011;11959;49.418;8.728;2023-02-01T06:54:27;11.13;;;6.05;;
23561;SDS011;11959;49.418;8.728;2023-02-01T06:56:53;10.77;;;6.75;;
23561;SDS011;11959;49.418;8.728;2023-02-01T06:59:18;9.70;;;6.00;;
23561;SDS011;11959;49.418;8.728;2023-02-01T07:01:44;11.13;;;6.55;;
23561;SDS011;11959;49.418;8.728;2023-02-01T07:04:11;9.60;;;5.97;;
23561;SDS011;11959;49.418;8.728;2023-02-01T07:06:37;10.27;;;6.38;;
23561;SDS011;11959;49.418;8.728;2023-02-01T07:09:03;13.68;;;6.72;;
23561;SDS011;11959;49.418;8.728;2023-02-01T07:11:28;8.63;;;5.93;;
23561;SDS011;11959;49.418;8.728;2023-02-01T07:13:55;9.63;;;5.72;;
23561;SDS011;11959;49.418;8.728;2023-02-01T07:16:21;11.27;;;5.95;;
23561;SDS011;11959;49.418;8.728;2023-02-01T07:18:47;9.20;;;5.82;;
23561;SDS011;11959;49.418;8.728;2023-02-01T07:21:14;10.70;;;6.22;;
23561;SDS011;11959;49.418;8.728;2023-02-01T07:23:40;11.73;;;6.30;;
23561;SDS011;11959;49.418;8.728;2023-02-01T07:26:06;9.13;;;5.45;;
23561;SDS011;11959;49.418;8.728;2023-02-01T07:28:35;9.23;;;5.45;;
23561;SDS011;11959;49.418;8.728;2023-02-01T07:31:09;9.10;;;5.63;;
23561;SDS011;11959;49.418;8.728;2023-02-01T07:33:38;11.95;;;6.35;;
23561;SDS011;11959;49.418;8.728;2023-02-01T07:36:04;12.60;;;5.78;;
23561;SDS011;11959;49.418;8.728;2023-02-01T07:38:31;10.50;;;6.38;;
23561;SDS011;11959;49.418;8.728;2023-02-01T07:40:57;8.73;;;5.22;;
23561;SDS011;11959;49.418;8.728;2023-02-01T07:43:24;10.43;;;5.57;;
23561;SDS011;11959;49.418;8.728;2023-02-01T07:45:51;9.73;;;4.80;;
23561;SDS011;11959;49.418;8.728;2023-02-01T07:48:18;9.32;;;4.30;;
23561;SDS011;11959;49.418;8.728;2023-02-01T07:50:44;7.70;;;4.32;;
23561;SDS011;11959;49.418;8.728;2023-02-01T07:53:09;5.75;;;3.85;;
23561;SDS011;11959;49.418;8.728;2023-02-01T07:55:39;8.15;;;4.00;;
23561;SDS011;11959;49.418;8.728;2023-02-01T07:58:05;6.40;;;3.75;;
23561;SDS011;11959;49.418;8.728;2023-02-01T08:00:31;8.27;;;4.22;;
23561;SDS011;11959;49.418;8.728;2023-02-01T08:03:15;8.45;;;4.68;;
23561;SDS011;11959;49.418;8.728;2023-02-01T08:05:41;13.38;;;4.70;;
23561;SDS011;11959;49.418;8.728;2023-02-01T08:08:08;10.35;;;4.40;;
23561;SDS011;11959;49.418;8.728;2023-02-01T08:10:33;13.25;;;4.95;;
23561;SDS011;11959;49.418;8.728;2023-02-01T08:13:00;9.18;;;4.30;;
23561;SDS011;11959;49.418;8.728;2023-02-01T08:15:27;12.20;;;5.35;;
23561;SDS011;11959;49.418;8.728;2023-02-01T08:17:53;8.23;;;4.78;;
23561;SDS011;11959;49.418;8.728;2023-02-01T08:20:23;10.82;;;5.57;;
23561;SDS011;11959;49.418;8.728;2023-02-01T08:22:50;14.40;;;5.63;;
23561;SDS011;11959;49.418;8.728;2023-02-01T08:25:16;12.25;;;5.28;;
23561;SDS011;11959;49.418;8.728;2023-02-01T08:27:42;10.82;;;5.32;;
23561;SDS011;11959;49.418;8.728;2023-02-01T08:30:08;11.98;;;5.35;;
23561;SDS011;11959;49.418;8.728;2023-02-01T08:32:34;11.00;;;5.07;;
23561;SDS011;11959;49.418;8.728;2023-02-01T08:35:00;16.33;;;5.35;;
23561;SDS011;11959;49.418;8.728;2023-02-01T08:37:26;10.32;;;5.57;;
23561;SDS011;11959;49.418;8.728;2023-02-01T08:39:52;14.70;;;5.47;;
23561;SDS011;11959;49.418;8.728;2023-02-01T08:42:18;9.35;;;5.25;;
23561;SDS011;11959;49.418;8.728;2023-02-01T08:45:03;9.85;;;5.07;;
23561;SDS011;11959;49.418;8.728;2023-02-01T08:47:29;13.18;;;5.05;;
23561;SDS011;11959;49.418;8.728;2023-02-01T08:49:55;12.98;;;5.68;;
23561;SDS011;11959;49.418;8.728;2023-02-01T08:52:20;13.07;;;5.70;;
23561;SDS011;11959;49.418;8.728;2023-02-01T08:54:46;15.63;;;6.25;;
23561;SDS011;11959;49.418;8.728;2023-02-01T08:57:12;12.38;;;6.15;;
23561;SDS011;11959;49.418;8.728;2023-02-01T08:59:38;14.65;;;5.68;;
23561;SDS011;11959;49.418;8.728;2023-02-01T09:02:03;15.95;;;6.28;;
23561;SDS011;11959;49.418;8.728;2023-02-01T09:04:29;12.60;;;5.40;;
23561;SDS011;11959;49.418;8.728;2023-02-01T09:06:55;16.20;;;6.03;;
23561;SDS011;11959;49.418;8.728;2023-02-01T09:09:21;11.75;;;5.82;;
23561;SDS011;11959;49.418;8.728;2023-02-01T09:11:47;12.93;;;5.68;;
23561;SDS011;11959;49.418;8.728;2023-02-01T09:14:15;10.75;;;5.25;;
23561;SDS011;11959;49.418;8.728;2023-02-01T09:16:41;12.38;;;5.50;;
23561;SDS011;11959;49.418;8.728;2023-02-01T09:19:07;14.05;;;5.32;;
23561;SDS011;11959;49.418;8.728;2023-02-01T09:21:32;10.90;;;5.68;;
23561;SDS011;11959;49.418;8.728;2023-02-01T09:23:58;13.25;;;5.90;;
23561;SDS011;11959;49.418;8.728;2023-02-01T09:26:24;13.45;;;5.53;;
23561;SDS011;11959;49.418;8.728;2023-02-01T09:28:50;14.00;;;6.00;;
23561;SDS011;11959;49.418;8.728;2023-02-01T09:31:16;13.63;;;6.05;;
23561;SDS011;11959;49.418;8.728;2023-02-01T09:33:42;12.07;;;5.75;;
23561;SDS011;11959;49.418;8.728;2023-02-01T09:36:07;12.30;;;4.95;;
23561;SDS011;11959;49.418;8.728;2023-02-01T09:38:33;13.57;;;5.05;;
23561;SDS011;11959;49.418;8.728;2023-02-01T09:41:00;16.25;;;4.82;;
23561;SDS011;11959;49.418;8.728;2023-02-01T09:43:32;13.52;;;4.85;;
23561;SDS011;11959;49.418;8.728;2023-02-01T09:46:11;11.65;;;5.00;;
23561;SDS011;11959;49.418;8.728;2023-02-01T09:48:46;16.83;;;5.28;;
23561;SDS011;11959;49.418;8.728;2023-02-01T09:51:15;14.32;;;5.00;;
23561;SDS011;11959;49.418;8.728;2023-02-01T09:53:46;13.47;;;5.13;;
23561;SDS011;11959;49.418;8.728;2023-02-01T09:56:20;14.40;;;4.60;;
23561;SDS011;11959;49.418;8.728;2023-02-01T10:01:44;13.55;;;4.72;;
23561;SDS011;11959;49.418;8.728;2023-02-01T10:04:12;14.15;;;4.60;;
23561;SDS011;11959;49.418;8.728;2023-02-01T10:17:25;14.05;;;4.07;;
23561;SDS011;11959;49.418;8.728;2023-02-01T10:20:12;15.43;;;4.25;;
23561;SDS011;11959;49.418;8.728;2023-02-01T10:22:47;13.73;;;3.92;;
23561;SDS011;11959;49.418;8.728;2023-02-01T10:25:58;11.20;;;3.38;;
23561;SDS011;11959;49.418;8.728;2023-02-01T10:28:37;13.57;;;3.67;;
23561;SDS011;11959;49.418;8.728;2023-02-01T10:31:04;9.93;;;3.78;;
23561;SDS011;11959;49.418;8.728;2023-02-01T10:36:04;11.00;;;3.35;;
23561;SDS011;11959;49.418;8.728;2023-02-01T10:38:31;12.98;;;3.58;;
23561;SDS011;11959;49.418;8.728;2023-02-01T10:41:00;13.25;;;3.58;;
23561;SDS011;11959;49.418;8.728;2023-02-01T10:43:48;10.07;;;3.40;;
23561;SDS011;11959;49.418;8.728;2023-02-01T10:46:17;13.60;;;3.00;;
23561;SDS011;11959;49.418;8.728;2023-02-01T10:48:43;15.07;;;3.67;;
23561;SDS011;11959;49.418;8.728;2023-02-01T10:51:15;10.52;;;3.33;;
23561;SDS011;11959;49.418;8.728;2023-02-01T10:53:52;10.32;;;3.13;;
23561;SDS011;11959;49.418;8.728;2023-02-01T10:56:24;10.90;;;3.10;;
23561;SDS011;11959;49.418;8.728;2023-02-01T10:59:06;11.80;;;3.20;;
23561;SDS011;11959;49.418;8.728;2023-02-01T11:01:43;12.35;;;3.20;;
23561;SDS011;11959;49.418;8.728;2023-02-01T11:04:15;9.07;;;3.00;;
23561;SDS011;11959;49.418;8.728;2023-02-01T11:07:04;13.07;;;2.83;;
23561;SDS011;11959;49.418;8.728;2023-02-01T11:09:33;12.73;;;2.95;;
23561;SDS011;11959;49.418;8.728;2023-02-01T11:12:04;13.32;;;3.63;;
23561;SDS011;11959;49.418;8.728;2023-02-01T11:14:45;14.23;;;2.88;;
23561;SDS011;11959;49.418;8.728;2023-02-01T11:17:55;9.98;;;2.75;;
23561;SDS011;11959;49.418;8.728;2023-02-01T11:20:08;8.13;;;2.60;;
23561;SDS011;11959;49.418;8.728;2023-02-01T11:22:46;11.57;;;2.70;;
23561;SDS011;11959;49.418;8.728;2023-02-01T11:25:13;11.45;;;2.65;;
23561;SDS011;11959;49.418;8.728;2023-02-01T11:27:41;12.57;;;2.80;;
23561;SDS011;11959;49.418;8.728;2023-02-01T11:30:07;9.40;;;2.80;;
23561;SDS011;11959;49.418;8.728;2023-02-01T11:32:39;9.93;;;2.80;;
23561;SDS011;11959;49.418;8.728;2023-02-01T11:35:05;10.40;;;2.80;;
23561;SDS011;11959;49.418;8.728;2023-02-01T11:37:41;10.15;;;2.75;;
23561;SDS011;11959;49.418;8.728;2023-02-01T11:46:02;14.00;;;3.75;;
23561;SDS011;11959;49.418;8.728;2023-02-01T11:48:30;8.00;;;2.72;;
23561;SDS011;11959;49.418;8.728;2023-02-01T12:07:57;15.55;;;3.30;;
23561;SDS011;11959;49.418;8.728;2023-02-01T12:13:04;10.80;;;3.08;;
23561;SDS011;11959;49.418;8.728;2023-02-01T12:18:44;11.85;;;3.72;;
23561;SDS011;11959;49.418;8.728;2023-02-01T12:21:22;9.10;;;3.70;;
23561;SDS011;11959;49.418;8.728;2023-02-01T12:29:56;14.05;;;3.15;;
23561;SDS011;11959;49.418;8.728;2023-02-01T12:41:12;15.02;;;3.60;;
23561;SDS011;11959;49.418;8.728;2023-02-01T12:47:06;17.80;;;5.38;;
23561;SDS011;11959;49.418;8.728;2023-02-01T12:49:50;8.82;;;2.63;;
23561;SDS011;11959;49.418;8.728;2023-02-01T13:00:47;14.60;;;2.85;;
23561;SDS011;11959;49.418;8.728;2023-02-01T13:06:16;11.15;;;2.85;;
23561;SDS011;11959;49.418;8.728;2023-02-01T13:22:03;15.68;;;3.10;;
23561;SDS011;11959;49.418;8.728;2023-02-01T13:24:39;10.63;;;2.70;;
23561;SDS011;11959;49.418;8.728;2023-02-01T13:27:17;10.57;;;2.85;;
23561;SDS011;11959;49.418;8.728;2023-02-01T13:29:49;17.38;;;3.35;;
23561;SDS011;11959;49.418;8.728;2023-02-01T13:43:01;15.60;;;3.05;;
23561;SDS011;11959;49.418;8.728;2023-02-01T13:45:34;8.70;;;2.95;;
23561;SDS011;11959;49.418;8.728;2023-02-01T13:48:06;9.45;;;2.45;;
23561;SDS011;11959;49.418;8.728;2023-02-01T13:51:03;16.45;;;3.85;;
23561;SDS011;11959;49.418;8.728;2023-02-01T13:53:33;8.20;;;2.67;;
23561;SDS011;11959;49.418;8.728;2023-02-01T13:58:32;10.15;;;2.63;;
23561;SDS011;11959;49.418;8.728;2023-02-01T14:01:45;9.68;;;2.20;;
23561;SDS011;11959;49.418;8.728;2023-02-01T14:03:55;13.20;;;2.67;;
23561;SDS011;11959;49.418;8.728;2023-02-01T14:16:43;8.68;;;2.70;;
23561;SDS011;11959;49.418;8.728;2023-02-01T14:19:32;12.55;;;2.75;;
23561;SDS011;11959;49.418;8.728;2023-02-01T14:22:00;9.85;;;2.88;;
23561;SDS011;11959;49.418;8.728;2023-02-01T14:24:44;8.57;;;2.40;;
23561;SDS011;11959;49.418;8.728;2023-02-01T14:27:18;13.75;;;2.72;;
23561;SDS011;11959;49.418;8.728;2023-02-01T14:29:50;8.38;;;2.28;;
23561;SDS011;11959;49.418;8.728;2023-02-01T14:32:38;10.68;;;2.30;;
23561;SDS011;11959;49.418;8.728;2023-02-01T14:35:08;11.38;;;2.78;;
23561;SDS011;11959;49.418;8.728;2023-02-01T14:37:46;11.63;;;2.97;;
23561;SDS011;11959;49.418;8.728;2023-02-01T14:40:19;14.20;;;2.88;;
23561;SDS011;11959;49.418;8.728;2023-02-01T14:42:50;16.23;;;2.97;;
23561;SDS011;11959;49.418;8.728;2023-02-01T14:50:33;8.60;;;2.15;;
23561;SDS011;11959;49.418;8.728;2023-02-01T14:53:16;11.70;;;2.58;;
23561;SDS011;11959;49.418;8.728;2023-02-01T15:01:25;10.98;;;2.67;;
23561;SDS011;11959;49.418;8.728;2023-02-01T15:11:32;7.18;;;2.10;;
23561;SDS011;11959;49.418;8.728;2023-02-01T15:17:18;7.10;;;2.40;;
23561;SDS011;11959;49.418;8.728;2023-02-01T15:19:56;12.80;;;2.80;;
23561;SDS011;11959;49.418;8.728;2023-02-01T15:22:23;9.48;;;2.08;;
23561;SDS011;11959;49.418;8.728;2023-02-01T15:24:59;9.45;;;2.15;;
23561;SDS011;11959;49.418;8.728;2023-02-01T15:27:26;8.55;;;2.40;;
23561;SDS011;11959;49.418;8.728;2023-02-01T15:29:53;9.73;;;2.28;;
23561;SDS011;11959;49.418;8.728;2023-02-01T15:32:32;8.48;;;2.63;;
23561;SDS011;11959;49.418;8.728;2023-02-01T15:35:03;9.43;;;2.08;;
23561;SDS011;11959;49.418;8.728;2023-02-01T15:37:30;10.80;;;2.83;;
23561;SDS011;11959;49.418;8.728;2023-02-01T15:42:35;9.13;;;2.15;;
23561;SDS011;11959;49.418;8.728;2023-02-01T15:45:03;12.68;;;2.55;;
23561;SDS011;11959;49.418;8.728;2023-02-01T15:47:29;7.88;;;2.60;;
23561;SDS011;11959;49.418;8.728;2023-02-01T15:49:58;9.35;;;2.10;;
23561;SDS011;11959;49.418;8.728;2023-02-01T15:52:30;9.00;;;2.90;;
23561;SDS011;11959;49.418;8.728;2023-02-01T15:55:05;12.65;;;2.72;;
23561;SDS011;11959;49.418;8.728;2023-02-01T15:57:45;7.93;;;2.47;;
23561;SDS011;11959;49.418;8.728;2023-02-01T16:02:53;10.07;;;2.95;;
23561;SDS011;11959;49.418;8.728;2023-02-01T16:05:37;9.38;;;2.40;;
23561;SDS011;11959;49.418;8.728;2023-02-01T16:08:24;8.90;;;2.78;;
23561;SDS011;11959;49.418;8.728;2023-02-01T16:10:52;8.18;;;2.05;;
23561;SDS011;11959;49.418;8.728;2023-02-01T16:13:20;11.15;;;2.30;;
23561;SDS011;11959;49.418;8.728;2023-02-01T16:15:47;9.95;;;2.92;;
23561;SDS011;11959;49.418;8.728;2023-02-01T16:18:13;8.98;;;2.42;;
23561;SDS011;11959;49.418;8.728;2023-02-01T16:20:40;13.02;;;2.67;;
23561;SDS011;11959;49.418;8.728;2023-02-01T16:23:06;6.70;;;2.45;;
23561;SDS011;11959;49.418;8.728;2023-02-01T16:25:33;10.25;;;2.50;;
23561;SDS011;11959;49.418;8.728;2023-02-01T16:27:59;10.32;;;3.30;;
23561;SDS011;11959;49.418;8.728;2023-02-01T16:30:24;12.48;;;2.60;;
23561;SDS011;11959;49.418;8.728;2023-02-01T16:32:54;11.88;;;2.78;;
23561;SDS011;11959;49.418;8.728;2023-02-01T16:37:48;12.25;;;2.70;;
23561;SDS011;11959;49.418;8.728;2023-02-01T16:40:14;10.45;;;2.78;;
23561;SDS011;11959;49.418;8.728;2023-02-01T16:42:41;12.00;;;3.10;;
23561;SDS011;11959;49.418;8.728;2023-02-01T16:45:07;13.60;;;3.25;;
23561;SDS011;11959;49.418;8.728;2023-02-01T16:47:34;11.02;;;2.85;;
23561;SDS011;11959;49.418;8.728;2023-02-01T16:50:03;6.53;;;2.30;;
23561;SDS011;11959;49.418;8.728;2023-02-01T16:52:29;12.95;;;2.78;;
23561;SDS011;11959;49.418;8.728;2023-02-01T16:54:54;12.57;;;3.13;;
23561;SDS011;11959;49.418;8.728;2023-02-01T16:57:20;14.32;;;3.55;;
23561;SDS011;11959;49.418;8.728;2023-02-01T16:59:50;12.23;;;2.10;;
23561;SDS011;11959;49.418;8.728;2023-02-01T17:02:17;11.35;;;3.22;;
23561;SDS011;11959;49.418;8.728;2023-02-01T17:04:44;15.32;;;3.08;;
23561;SDS011;11959;49.418;8.728;2023-02-01T17:07:13;17.45;;;3.30;;
23561;SDS011;11959;49.418;8.728;2023-02-01T17:09:41;9.60;;;2.75;;
23561;SDS011;11959;49.418;8.728;2023-02-01T17:12:14;9.52;;;3.05;;
23561;SDS011;11959;49.418;8.728;2023-02-01T17:14:49;12.23;;;2.75;;
23561;SDS011;11959;49.418;8.728;2023-02-01T17:17:15;13.23;;;3.03;;
23561;SDS011;11959;49.418;8.728;2023-02-01T17:19:41;11.90;;;3.05;;
23561;SDS011;11959;49.418;8.728;2023-02-01T17:22:09;9.63;;;3.30;;
23561;SDS011;11959;49.418;8.728;2023-02-01T17:24:35;11.88;;;2.60;;
23561;SDS011;11959;49.418;8.728;2023-02-01T17:27:01;11.32;;;2.67;;
23561;SDS011;11959;49.418;8.728;2023-02-01T17:29:28;10.75;;;2.60;;
23561;SDS011;11959;49.418;8.728;2023-02-01T17:31:54;12.90;;;3.05;;
23561;SDS011;11959;49.418;8.728;2023-02-01T17:34:20;14.05;;;2.80;;
23561;SDS011;11959;49.418;8.728;2023-02-01T17:36:47;12.52;;;2.92;;
23561;SDS011;11959;49.418;8.728;2023-02-01T17:39:14;17.63;;;3.20;;
23561;SDS011;11959;49.418;8.728;2023-02-01T17:42:00;9.93;;;3.15;;
23561;SDS011;11959;49.418;8.728;2023-02-01T17:44:26;12.45;;;2.95;;
23561;SDS011;11959;49.418;8.728;2023-02-01T17:46:52;12.70;;;2.58;;
23561;SDS011;11959;49.418;8.728;2023-02-01T17:49:18;10.73;;;3.15;;
23561;SDS011;11959;49.418;8.728;2023-02-01T17:51:43;9.50;;;2.75;;